sensor_id;sensor_type;location;lat;lon;timestamp;pressure;altitude;pressure_sealevel;temperature;humidity
46379;BME280;32084;42.254;22.744;2023-11-19T00:00:48;95208.66;;;5.55;61.60
46379;BME280;32084;42.254;22.744;2023-11-19T00:03:14;95199.41;;;5.50;61.58
46379;BME280;32084;42.254;22.744;2023-11-19T00:05:39;95207.03;;;5.43;62.09
46379;BME280;32084;42.254;22.744;2023-11-19T00:08:07;95209.41;;;5.46;62.20
46379;BME280;32084;42.254;22.744;2023-11-19T00:10:34;95202.50;;;5.55;61.46
46379;BME280;32084;42.254;22.744;2023-11-19T00:13:00;95219.78;;;5.49;61.17
46379;BME280;32084;42.254;22.744;2023-11-19T00:15:26;95218.38;;;5.45;61.67
46379;BME280;32084;42.254;22.744;2023-11-19T00:17:52;95214.66;;;5.36;61.85
46379;BME280;32084;42.254;22.744;2023-11-19T00:20:18;95227.31;;;5.33;62.02
46379;BME280;32084;42.254;22.744;2023-11-19T00:22:45;95220.56;;;5.40;62.29
46379;BME280;32084;42.254;22.744;2023-11-19T00:25:17;95239.63;;;5.34;62.37
46379;BME280;32084;42.254;22.744;2023-11-19T00:27:43;95232.75;;;5.31;62.30
46379;BME280;32084;42.254;22.744;2023-11-19T00:30:12;95234.38;;;5.22;62.68
46379;BME280;32084;42.254;22.744;2023-11-19T00:32:39;95232.19;;;5.27;63.07
46379;BME280;32084;42.254;22.744;2023-11-19T00:35:06;95241.09;;;5.26;62.74
46379;BME280;32084;42.254;22.744;2023-11-19T00:37:33;95244.22;;;5.32;62.36
46379;BME280;32084;42.254;22.744;2023-11-19T00:39:59;95232.91;;;5.30;62.19
46379;BME280;32084;42.254;22.744;2023-11-19T00:42:25;95238.19;;;5.30;62.89
46379;BME280;32084;42.254;22.744;2023-11-19T00:44:51;95242.75;;;5.39;62.49
46379;BME280;32084;42.254;22.744;2023-11-19T00:47:17;95241.88;;;5.38;62.48
46379;BME280;32084;42.254;22.744;2023-11-19T00:49:46;95241.06;;;5.38;62.62
46379;BME280;32084;42.254;22.744;2023-11-19T00:52:14;95229.97;;;5.33;62.73
46379;BME280;32084;42.254;22.744;2023-11-19T00:54:40;95231.06;;;5.30;63.07
46379;BME280;32084;42.254;22.744;2023-11-19T00:57:06;95231.59;;;5.24;64.40
46379;BME280;32084;42.254;22.744;2023-11-19T00:59:32;95245.34;;;5.18;63.97
46379;BME280;32084;42.254;22.744;2023-11-19T01:01:58;95243.28;;;5.21;63.95
46379;BME280;32084;42.254;22.744;2023-11-19T01:04:29;95238.97;;;5.20;64.33
46379;BME280;32084;42.254;22.744;2023-11-19T01:06:55;95232.44;;;5.24;64.69
46379;BME280;32084;42.254;22.744;2023-11-19T01:09:21;95236.38;;;5.30;65.17
46379;BME280;32084;42.254;22.744;2023-11-19T01:11:47;95243.94;;;5.35;64.52
46379;BME280;32084;42.254;22.744;2023-11-19T01:14:13;95229.97;;;5.33;64.94
46379;BME280;32084;42.254;22.744;2023-11-19T01:16:39;95242.28;;;5.34;64.63
46379;BME280;32084;42.254;22.744;2023-11-19T01:19:05;95226.50;;;5.32;65.42
46379;BME280;32084;42.254;22.744;2023-11-19T01:21:31;95240.81;;;5.41;65.29
46379;BME280;32084;42.254;22.744;2023-11-19T01:23:57;95230.31;;;5.39;64.74
46379;BME280;32084;42.254;22.744;2023-11-19T01:26:24;95234.84;;;5.27;66.13
46379;BME280;32084;42.254;22.744;2023-11-19T01:28:50;95242.56;;;5.19;65.82
46379;BME280;32084;42.254;22.744;2023-11-19T01:31:18;95246.16;;;5.30;65.17
46379;BME280;32084;42.254;22.744;2023-11-19T01:33:44;95249.75;;;5.28;65.56
46379;BME280;32084;42.254;22.744;2023-11-19T01:36:12;95257.75;;;5.17;66.79
46379;BME280;32084;42.254;22.744;2023-11-19T01:38:39;95249.56;;;5.20;66.47
46379;BME280;32084;42.254;22.744;2023-11-19T01:41:05;95248.56;;;5.21;66.56
46379;BME280;32084;42.254;22.744;2023-11-19T01:43:34;95239.03;;;5.30;66.16
46379;BME280;32084;42.254;22.744;2023-11-19T01:46:00;95237.22;;;5.31;65.30
46379;BME280;32084;42.254;22.744;2023-11-19T01:48:27;95239.66;;;5.22;65.92
46379;BME280;32084;42.254;22.744;2023-11-19T01:50:53;95237.38;;;5.18;66.06
46379;BME280;32084;42.254;22.744;2023-11-19T01:53:19;95243.91;;;5.14;66.29
46379;BME280;32084;42.254;22.744;2023-11-19T01:55:48;95244.03;;;5.12;66.05
46379;BME280;32084;42.254;22.744;2023-11-19T01:58:15;95243.78;;;5.15;66.61
46379;BME280;32084;42.254;22.744;2023-11-19T02:00:42;95228.13;;;5.12;65.65
46379;BME280;32084;42.254;22.744;2023-11-19T02:03:09;95235.75;;;5.05;65.60
46379;BME280;32084;42.254;22.744;2023-11-19T02:05:36;95224.31;;;5.05;65.19
46379;BME280;32084;42.254;22.744;2023-11-19T02:08:02;95223.16;;;5.19;65.04
46379;BME280;32084;42.254;22.744;2023-11-19T02:10:29;95205.56;;;5.18;65.76
46379;BME280;32084;42.254;22.744;2023-11-19T02:12:55;95211.69;;;5.30;64.74
46379;BME280;32084;42.254;22.744;2023-11-19T02:15:21;95217.47;;;5.23;64.75
46379;BME280;32084;42.254;22.744;2023-11-19T02:17:50;95219.47;;;5.10;65.33
46379;BME280;32084;42.254;22.744;2023-11-19T02:20:17;95208.38;;;5.16;65.45
46379;BME280;32084;42.254;22.744;2023-11-19T02:22:46;95201.78;;;5.11;65.53
46379;BME280;32084;42.254;22.744;2023-11-19T02:25:33;95204.75;;;5.17;64.85
46379;BME280;32084;42.254;22.744;2023-11-19T02:27:59;95212.69;;;5.17;64.82
46379;BME280;32084;42.254;22.744;2023-11-19T02:30:26;95217.03;;;5.18;64.77
46379;BME280;32084;42.254;22.744;2023-11-19T02:32:52;95204.63;;;5.19;64.89
46379;BME280;32084;42.254;22.744;2023-11-19T02:35:19;95209.72;;;5.11;65.19
46379;BME280;32084;42.254;22.744;2023-11-19T02:37:47;95204.66;;;5.07;65.29
46379;BME280;32084;42.254;22.744;2023-11-19T02:40:13;95200.00;;;5.00;66.16
46379;BME280;32084;42.254;22.744;2023-11-19T02:42:39;95215.38;;;5.06;65.64
46379;BME280;32084;42.254;22.744;2023-11-19T02:45:05;95202.59;;;5.11;65.31
46379;BME280;32084;42.254;22.744;2023-11-19T02:47:33;95196.13;;;5.04;65.98
46379;BME280;32084;42.254;22.744;2023-11-19T02:49:59;95200.00;;;5.00;66.32
46379;BME280;32084;42.254;22.744;2023-11-19T02:52:25;95193.03;;;4.87;66.82
46379;BME280;32084;42.254;22.744;2023-11-19T02:54:51;95195.56;;;4.89;67.33
46379;BME280;32084;42.254;22.744;2023-11-19T02:57:17;95212.66;;;4.96;66.31
46379;BME280;32084;42.254;22.744;2023-11-19T02:59:46;95201.41;;;5.04;66.10
46379;BME280;32084;42.254;22.744;2023-11-19T03:02:12;95201.19;;;5.07;65.84
46379;BME280;32084;42.254;22.744;2023-11-19T03:04:41;95207.44;;;5.06;65.65
46379;BME280;32084;42.254;22.744;2023-11-19T03:07:09;95213.34;;;4.98;66.21
46379;BME280;32084;42.254;22.744;2023-11-19T03:09:35;95216.59;;;5.02;66.00
46379;BME280;32084;42.254;22.744;2023-11-19T03:12:01;95221.91;;;5.02;65.87
46379;BME280;32084;42.254;22.744;2023-11-19T03:14:27;95221.16;;;5.11;65.57
46379;BME280;32084;42.254;22.744;2023-11-19T03:16:53;95222.81;;;5.12;65.41
46379;BME280;32084;42.254;22.744;2023-11-19T03:19:19;95224.44;;;5.03;65.47
46379;BME280;32084;42.254;22.744;2023-11-19T03:21:45;95216.72;;;5.00;65.92
46379;BME280;32084;42.254;22.744;2023-11-19T03:24:14;95212.06;;;4.93;65.92
46379;BME280;32084;42.254;22.744;2023-11-19T03:26:41;95212.78;;;4.83;65.41
46379;BME280;32084;42.254;22.744;2023-11-19T03:29:08;95211.88;;;4.73;66.08
46379;BME280;32084;42.254;22.744;2023-11-19T03:31:34;95213.19;;;4.67;66.24
46379;BME280;32084;42.254;22.744;2023-11-19T03:34:00;95204.66;;;4.64;66.35
46379;BME280;32084;42.254;22.744;2023-11-19T03:36:31;95198.66;;;4.62;66.51
46379;BME280;32084;42.254;22.744;2023-11-19T03:38:58;95201.19;;;4.52;66.03
46379;BME280;32084;42.254;22.744;2023-11-19T03:41:24;95202.75;;;4.55;66.74
46379;BME280;32084;42.254;22.744;2023-11-19T03:43:50;95206.63;;;4.50;66.55
46379;BME280;32084;42.254;22.744;2023-11-19T03:46:17;95209.03;;;4.54;66.05
46379;BME280;32084;42.254;22.744;2023-11-19T03:48:43;95220.56;;;4.53;66.21
46379;BME280;32084;42.254;22.744;2023-11-19T03:51:09;95233.81;;;4.53;66.47
46379;BME280;32084;42.254;22.744;2023-11-19T03:53:35;95233.19;;;4.49;67.15
46379;BME280;32084;42.254;22.744;2023-11-19T03:56:01;95248.59;;;4.44;66.66
46379;BME280;32084;42.254;22.744;2023-11-19T03:58:27;95252.22;;;4.43;67.13
46379;BME280;32084;42.254;22.744;2023-11-19T04:00:53;95250.91;;;4.48;67.14
46379;BME280;32084;42.254;22.744;2023-11-19T04:03:19;95258.13;;;4.58;66.75
46379;BME280;32084;42.254;22.744;2023-11-19T04:05:45;95258.25;;;4.56;67.01
46379;BME280;32084;42.254;22.744;2023-11-19T04:08:11;95268.00;;;4.56;66.37
46379;BME280;32084;42.254;22.744;2023-11-19T04:10:37;95276.53;;;4.59;66.78
46379;BME280;32084;42.254;22.744;2023-11-19T04:13:03;95280.50;;;4.65;66.42
46379;BME280;32084;42.254;22.744;2023-11-19T04:15:29;95281.84;;;4.59;66.77
46379;BME280;32084;42.254;22.744;2023-11-19T04:17:55;95279.91;;;4.61;66.88
46379;BME280;32084;42.254;22.744;2023-11-19T04:20:21;95282.41;;;4.63;66.07
46379;BME280;32084;42.254;22.744;2023-11-19T04:22:47;95282.19;;;4.66;66.08
46379;BME280;32084;42.254;22.744;2023-11-19T04:25:13;95284.34;;;4.72;65.83
46379;BME280;32084;42.254;22.744;2023-11-19T04:27:40;95269.53;;;4.69;66.85
46379;BME280;32084;42.254;22.744;2023-11-19T04:30:06;95282.06;;;4.79;65.85
46379;BME280;32084;42.254;22.744;2023-11-19T04:32:33;95287.13;;;4.71;66.11
46379;BME280;32084;42.254;22.744;2023-11-19T04:34:59;95288.47;;;4.65;66.67
46379;BME280;32084;42.254;22.744;2023-11-19T04:37:25;95287.47;;;4.66;66.14
46379;BME280;32084;42.254;22.744;2023-11-19T04:39:51;95295.66;;;4.74;66.34
46379;BME280;32084;42.254;22.744;2023-11-19T04:42:17;95307.13;;;4.75;66.56
46379;BME280;32084;42.254;22.744;2023-11-19T04:44:43;95296.84;;;4.81;66.27
46379;BME280;32084;42.254;22.744;2023-11-19T04:47:09;95309.16;;;4.82;65.38
46379;BME280;32084;42.254;22.744;2023-11-19T04:49:39;95307.56;;;4.80;65.85
46379;BME280;32084;42.254;22.744;2023-11-19T04:52:05;95302.53;;;4.77;65.87
46379;BME280;32084;42.254;22.744;2023-11-19T04:54:31;95305.06;;;4.78;66.23
46379;BME280;32084;42.254;22.744;2023-11-19T04:56:57;95300.59;;;4.79;66.24
46379;BME280;32084;42.254;22.744;2023-11-19T04:59:23;95297.84;;;4.80;66.73
46379;BME280;32084;42.254;22.744;2023-11-19T05:01:49;95306.50;;;4.82;66.45
46379;BME280;32084;42.254;22.744;2023-11-19T05:04:17;95304.34;;;4.76;66.87
46379;BME280;32084;42.254;22.744;2023-11-19T05:06:44;95315.16;;;4.84;66.62
46379;BME280;32084;42.254;22.744;2023-11-19T05:09:10;95328.91;;;4.89;66.29
46379;BME280;32084;42.254;22.744;2023-11-19T05:11:38;95335.25;;;4.98;66.01
46379;BME280;32084;42.254;22.744;2023-11-19T05:14:05;95335.38;;;4.97;65.68
46379;BME280;32084;42.254;22.744;2023-11-19T05:16:31;95332.97;;;4.94;66.49
46379;BME280;32084;42.254;22.744;2023-11-19T05:18:57;95320.44;;;4.96;66.52
46379;BME280;32084;42.254;22.744;2023-11-19T05:21:23;95320.19;;;4.99;66.56
46379;BME280;32084;42.254;22.744;2023-11-19T05:23:49;95336.09;;;4.99;66.12
46379;BME280;32084;42.254;22.744;2023-11-19T05:26:19;95337.19;;;4.96;66.42
46379;BME280;32084;42.254;22.744;2023-11-19T05:28:45;95329.97;;;4.98;66.22
46379;BME280;32084;42.254;22.744;2023-11-19T05:31:11;95329.59;;;5.03;65.37
46379;BME280;32084;42.254;22.744;2023-11-19T05:33:37;95333.56;;;5.08;65.71
46379;BME280;32084;42.254;22.744;2023-11-19T05:36:04;95331.50;;;5.12;65.40
46379;BME280;32084;42.254;22.744;2023-11-19T05:38:30;95333.66;;;5.18;65.89
46379;BME280;32084;42.254;22.744;2023-11-19T05:40:56;95345.34;;;5.16;64.75
46379;BME280;32084;42.254;22.744;2023-11-19T05:43:22;95347.53;;;5.11;65.46
46379;BME280;32084;42.254;22.744;2023-11-19T05:45:48;95342.69;;;5.16;65.11
46379;BME280;32084;42.254;22.744;2023-11-19T05:48:14;95340.03;;;5.16;64.54
46379;BME280;32084;42.254;22.744;2023-11-19T05:50:40;95333.91;;;5.04;65.30
46379;BME280;32084;42.254;22.744;2023-11-19T05:53:06;95345.75;;;5.00;65.30
46379;BME280;32084;42.254;22.744;2023-11-19T05:55:34;95341.75;;;5.05;65.29
46379;BME280;32084;42.254;22.744;2023-11-19T05:58:01;95336.69;;;5.02;64.77
46379;BME280;32084;42.254;22.744;2023-11-19T06:00:28;95336.94;;;4.99;65.02
46379;BME280;32084;42.254;22.744;2023-11-19T06:02:54;95347.28;;;5.02;64.73
46379;BME280;32084;42.254;22.744;2023-11-19T06:05:20;95353.19;;;5.06;64.80
46379;BME280;32084;42.254;22.744;2023-11-19T06:07:46;95372.56;;;5.06;64.82
46379;BME280;32084;42.254;22.744;2023-11-19T06:10:12;95368.16;;;5.07;64.79
46379;BME280;32084;42.254;22.744;2023-11-19T06:12:42;95371.50;;;5.20;64.14
46379;BME280;32084;42.254;22.744;2023-11-19T06:15:09;95373.16;;;5.21;63.76
46379;BME280;32084;42.254;22.744;2023-11-19T06:17:35;95365.56;;;5.28;63.24
46379;BME280;32084;42.254;22.744;2023-11-19T06:20:01;95365.56;;;5.28;63.16
46379;BME280;32084;42.254;22.744;2023-11-19T06:22:27;95361.38;;;5.25;63.43
46379;BME280;32084;42.254;22.744;2023-11-19T06:24:53;95368.84;;;5.20;63.49
46379;BME280;32084;42.254;22.744;2023-11-19T06:27:19;95365.34;;;5.20;63.52
46379;BME280;32084;42.254;22.744;2023-11-19T06:29:45;95358.59;;;5.16;64.10
46379;BME280;32084;42.254;22.744;2023-11-19T06:32:11;95363.66;;;5.30;63.55
46379;BME280;32084;42.254;22.744;2023-11-19T06:34:37;95375.69;;;5.34;63.15
46379;BME280;32084;42.254;22.744;2023-11-19T06:37:04;95384.75;;;5.32;62.65
46379;BME280;32084;42.254;22.744;2023-11-19T06:39:30;95385.66;;;5.42;62.80
46379;BME280;32084;42.254;22.744;2023-11-19T06:41:56;95366.28;;;5.41;62.30
46379;BME280;32084;42.254;22.744;2023-11-19T06:44:22;95361.28;;;5.48;62.72
46379;BME280;32084;42.254;22.744;2023-11-19T06:46:48;95357.22;;;5.44;61.67
46379;BME280;32084;42.254;22.744;2023-11-19T06:49:14;95348.28;;;5.56;61.90
46379;BME280;32084;42.254;22.744;2023-11-19T06:51:41;95368.16;;;5.62;61.23
46379;BME280;32084;42.254;22.744;2023-11-19T06:54:07;95374.38;;;5.72;61.52
46379;BME280;32084;42.254;22.744;2023-11-19T06:56:33;95378.09;;;5.81;61.41
46379;BME280;32084;42.254;22.744;2023-11-19T06:58:59;95371.75;;;5.93;60.42
46379;BME280;32084;42.254;22.744;2023-11-19T07:01:25;95365.72;;;5.91;59.71
46379;BME280;32084;42.254;22.744;2023-11-19T07:03:51;95371.16;;;6.01;59.59
46379;BME280;32084;42.254;22.744;2023-11-19T07:06:17;95368.66;;;5.88;60.07
46379;BME280;32084;42.254;22.744;2023-11-19T07:08:44;95359.97;;;5.86;60.34
46379;BME280;32084;42.254;22.744;2023-11-19T07:11:13;95376.22;;;5.93;60.81
46379;BME280;32084;42.254;22.744;2023-11-19T07:13:40;95382.25;;;5.95;60.21
46379;BME280;32084;42.254;22.744;2023-11-19T07:16:07;95381.53;;;6.04;60.29
46379;BME280;32084;42.254;22.744;2023-11-19T07:18:35;95387.25;;;6.20;59.30
46379;BME280;32084;42.254;22.744;2023-11-19T07:21:01;95381.28;;;6.28;58.54
46379;BME280;32084;42.254;22.744;2023-11-19T07:23:28;95383.94;;;6.28;58.60
46379;BME280;32084;42.254;22.744;2023-11-19T07:25:54;95379.06;;;6.33;58.29
46379;BME280;32084;42.254;22.744;2023-11-19T07:28:20;95400.28;;;7.97;54.65
46379;BME280;32084;42.254;22.744;2023-11-19T07:30:46;95398.72;;;7.85;53.05
46379;BME280;32084;42.254;22.744;2023-11-19T07:33:13;95396.91;;;7.25;54.20
46379;BME280;32084;42.254;22.744;2023-11-19T07:35:39;95400.09;;;6.88;55.38
46379;BME280;32084;42.254;22.744;2023-11-19T07:38:09;95396.22;;;6.71;56.17
46379;BME280;32084;42.254;22.744;2023-11-19T07:40:36;95397.28;;;6.59;56.48
46379;BME280;32084;42.254;22.744;2023-11-19T07:43:02;95396.81;;;6.54;56.32
46379;BME280;32084;42.254;22.744;2023-11-19T07:45:28;95403.38;;;6.50;55.86
46379;BME280;32084;42.254;22.744;2023-11-19T07:47:54;95416.13;;;6.56;55.99
46379;BME280;32084;42.254;22.744;2023-11-19T07:50:20;95412.63;;;6.55;56.01
46379;BME280;32084;42.254;22.744;2023-11-19T07:52:46;95412.56;;;6.67;56.10
46379;BME280;32084;42.254;22.744;2023-11-19T07:55:12;95395.84;;;6.76;55.82
46379;BME280;32084;42.254;22.744;2023-11-19T07:57:39;95399.84;;;6.91;55.88
46379;BME280;32084;42.254;22.744;2023-11-19T08:00:05;95397.25;;;6.80;54.53
46379;BME280;32084;42.254;22.744;2023-11-19T08:02:31;95391.59;;;6.73;55.19
46379;BME280;32084;42.254;22.744;2023-11-19T08:04:57;95396.09;;;6.73;54.69
46379;BME280;32084;42.254;22.744;2023-11-19T08:07:23;95405.97;;;6.92;54.61
46379;BME280;32084;42.254;22.744;2023-11-19T08:09:49;95419.56;;;7.70;52.19
46379;BME280;32084;42.254;22.744;2023-11-19T08:12:15;95415.00;;;8.01;51.01
46379;BME280;32084;42.254;22.744;2023-11-19T08:14:43;95422.00;;;8.31;50.37
46379;BME280;32084;42.254;22.744;2023-11-19T08:17:11;95427.91;;;8.64;49.73
46379;BME280;32084;42.254;22.744;2023-11-19T08:19:37;95426.25;;;9.10;48.96
46379;BME280;32084;42.254;22.744;2023-11-19T08:22:03;95436.31;;;9.26;48.83
46379;BME280;32084;42.254;22.744;2023-11-19T08:24:29;95442.03;;;9.41;47.90
46379;BME280;32084;42.254;22.744;2023-11-19T08:26:55;95433.03;;;9.70;47.44
46379;BME280;32084;42.254;22.744;2023-11-19T08:29:21;95428.19;;;10.01;46.17
46379;BME280;32084;42.254;22.744;2023-11-19T08:31:47;95435.06;;;9.58;47.18
46379;BME280;32084;42.254;22.744;2023-11-19T08:34:13;95429.66;;;9.40;46.93
46379;BME280;32084;42.254;22.744;2023-11-19T08:36:39;95422.63;;;9.02;48.21
46379;BME280;32084;42.254;22.744;2023-11-19T08:39:05;95424.25;;;8.75;48.63
46379;BME280;32084;42.254;22.744;2023-11-19T08:41:31;95436.81;;;9.02;47.98
46379;BME280;32084;42.254;22.744;2023-11-19T08:43:57;95431.91;;;9.45;46.68
46379;BME280;32084;42.254;22.744;2023-11-19T08:46:23;95439.56;;;9.85;45.95
46379;BME280;32084;42.254;22.744;2023-11-19T08:48:49;95453.47;;;10.07;45.19
46379;BME280;32084;42.254;22.744;2023-11-19T08:51:15;95463.47;;;10.32;44.54
46379;BME280;32084;42.254;22.744;2023-11-19T08:53:41;95463.31;;;10.34;44.86
46379;BME280;32084;42.254;22.744;2023-11-19T08:56:07;95458.03;;;10.42;44.38
46379;BME280;32084;42.254;22.744;2023-11-19T08:58:33;95467.06;;;10.59;43.88
46379;BME280;32084;42.254;22.744;2023-11-19T09:00:59;95464.38;;;10.59;44.36
46379;BME280;32084;42.254;22.744;2023-11-19T09:03:26;95452.13;;;10.21;45.09
46379;BME280;32084;42.254;22.744;2023-11-19T09:05:52;95444.16;;;10.83;44.50
46379;BME280;32084;42.254;22.744;2023-11-19T09:08:18;95439.78;;;11.26;43.48
46379;BME280;32084;42.254;22.744;2023-11-19T09:10:44;95441.00;;;11.31;42.77
46379;BME280;32084;42.254;22.744;2023-11-19T09:13:10;95444.84;;;11.29;42.22
46379;BME280;32084;42.254;22.744;2023-11-19T09:15:36;95439.56;;;11.45;42.25
46379;BME280;32084;42.254;22.744;2023-11-19T09:18:02;95442.19;;;11.71;41.81
46379;BME280;32084;42.254;22.744;2023-11-19T09:20:28;95439.06;;;11.76;41.72
46379;BME280;32084;42.254;22.744;2023-11-19T09:22:58;95448.34;;;11.29;42.38
46379;BME280;32084;42.254;22.744;2023-11-19T09:25:24;95436.78;;;10.77;43.57
46379;BME280;32084;42.254;22.744;2023-11-19T09:27:50;95435.63;;;10.79;43.10
46379;BME280;32084;42.254;22.744;2023-11-19T09:30:16;95428.56;;;10.70;43.87
46379;BME280;32084;42.254;22.744;2023-11-19T09:32:42;95420.59;;;11.04;43.39
46379;BME280;32084;42.254;22.744;2023-11-19T09:35:08;95419.06;;;10.58;43.34
46379;BME280;32084;42.254;22.744;2023-11-19T09:37:34;95421.47;;;9.97;44.93
46379;BME280;32084;42.254;22.744;2023-11-19T09:40:00;95417.63;;;9.64;45.48
46379;BME280;32084;42.254;22.744;2023-11-19T09:42:26;95407.22;;;9.33;46.32
46379;BME280;32084;42.254;22.744;2023-11-19T09:44:53;95393.88;;;8.95;46.95
46379;BME280;32084;42.254;22.744;2023-11-19T09:47:19;95390.50;;;8.93;47.16
46379;BME280;32084;42.254;22.744;2023-11-19T09:49:45;95380.78;;;9.02;47.86
46379;BME280;32084;42.254;22.744;2023-11-19T09:52:12;95364.78;;;9.02;47.55
46379;BME280;32084;42.254;22.744;2023-11-19T09:54:37;95367.84;;;9.45;46.20
46379;BME280;32084;42.254;22.744;2023-11-19T09:57:03;95363.44;;;9.53;45.70
46379;BME280;32084;42.254;22.744;2023-11-19T09:59:30;95358.59;;;9.39;46.05
46379;BME280;32084;42.254;22.744;2023-11-19T10:01:56;95360.06;;;9.24;46.44
46379;BME280;32084;42.254;22.744;2023-11-19T10:04:22;95359.66;;;9.46;46.18
46379;BME280;32084;42.254;22.744;2023-11-19T10:06:50;95370.63;;;9.71;45.42
46379;BME280;32084;42.254;22.744;2023-11-19T10:12:38;95361.03;;;10.32;43.87
46379;BME280;32084;42.254;22.744;2023-11-19T10:15:05;95357.53;;;10.75;44.31
46379;BME280;32084;42.254;22.744;2023-11-19T10:17:33;95359.47;;;11.18;43.97
46379;BME280;32084;42.254;22.744;2023-11-19T10:20:00;95357.19;;;11.31;43.10
46379;BME280;32084;42.254;22.744;2023-11-19T10:22:27;95353.34;;;11.42;42.59
46379;BME280;32084;42.254;22.744;2023-11-19T10:24:53;95342.34;;;11.45;42.12
46379;BME280;32084;42.254;22.744;2023-11-19T10:27:20;95335.78;;;11.31;42.53
46379;BME280;32084;42.254;22.744;2023-11-19T10:29:46;95331.50;;;11.55;43.16
46379;BME280;32084;42.254;22.744;2023-11-19T10:32:13;95332.00;;;11.50;41.86
46379;BME280;32084;42.254;22.744;2023-11-19T10:34:40;95334.84;;;11.57;41.86
46379;BME280;32084;42.254;22.744;2023-11-19T10:37:07;95337.78;;;11.37;41.17
46379;BME280;32084;42.254;22.744;2023-11-19T10:39:51;95324.97;;;11.57;42.71
46379;BME280;32084;42.254;22.744;2023-11-19T10:42:20;95334.31;;;11.45;42.56
46379;BME280;32084;42.254;22.744;2023-11-19T10:44:46;95334.31;;;11.53;42.06
46379;BME280;32084;42.254;22.744;2023-11-19T10:47:15;95341.16;;;11.47;43.06
46379;BME280;32084;42.254;22.744;2023-11-19T10:49:44;95350.16;;;11.38;42.02
46379;BME280;32084;42.254;22.744;2023-11-19T10:52:11;95337.50;;;11.48;43.39
46379;BME280;32084;42.254;22.744;2023-11-19T10:54:42;95343.75;;;11.65;42.27
46379;BME280;32084;42.254;22.744;2023-11-19T10:57:10;95344.63;;;11.82;42.19
46379;BME280;32084;42.254;22.744;2023-11-19T10:59:38;95346.38;;;11.91;42.03
46379;BME280;32084;42.254;22.744;2023-11-19T11:02:06;95334.59;;;11.76;41.41
46379;BME280;32084;42.254;22.744;2023-11-19T11:04:37;95317.28;;;11.62;43.05
46379;BME280;32084;42.254;22.744;2023-11-19T11:07:05;95312.34;;;11.33;42.26
46379;BME280;32084;42.254;22.744;2023-11-19T11:09:31;95314.97;;;11.25;42.88
46379;BME280;32084;42.254;22.744;2023-11-19T11:11:58;95305.31;;;11.32;42.06
46379;BME280;32084;42.254;22.744;2023-11-19T11:14:24;95312.72;;;11.46;42.73
46379;BME280;32084;42.254;22.744;2023-11-19T11:16:51;95305.16;;;11.42;42.94
46379;BME280;32084;42.254;22.744;2023-11-19T11:19:18;95306.19;;;11.49;42.45
46379;BME280;32084;42.254;22.744;2023-11-19T11:21:50;95302.69;;;11.40;42.45
46379;BME280;32084;42.254;22.744;2023-11-19T11:24:30;95295.94;;;11.36;43.32
46379;BME280;32084;42.254;22.744;2023-11-19T11:39:34;95298.88;;;11.67;42.60
46379;BME280;32084;42.254;22.744;2023-11-19T11:42:33;95286.13;;;11.53;42.84
46379;BME280;32084;42.254;22.744;2023-11-19T11:48:04;95278.22;;;11.35;42.51
46379;BME280;32084;42.254;22.744;2023-11-19T11:55:26;95258.16;;;11.47;43.06
46379;BME280;32084;42.254;22.744;2023-11-19T11:57:52;95246.63;;;11.55;42.15
46379;BME280;32084;42.254;22.744;2023-11-19T12:00:27;95243.88;;;11.22;42.75
46379;BME280;32084;42.254;22.744;2023-11-19T12:02:55;95238.84;;;11.19;43.06
46379;BME280;32084;42.254;22.744;2023-11-19T12:05:22;95233.34;;;11.21;42.52
46379;BME280;32084;42.254;22.744;2023-11-19T12:08:01;95234.28;;;11.03;42.66
46379;BME280;32084;42.254;22.744;2023-11-19T12:10:31;95243.94;;;10.88;42.31
46379;BME280;32084;42.254;22.744;2023-11-19T12:12:58;95243.44;;;10.58;43.29
46379;BME280;32084;42.254;22.744;2023-11-19T12:15:24;95245.09;;;10.51;43.46
46379;BME280;32084;42.254;22.744;2023-11-19T12:17:52;95241.78;;;10.57;45.30
46379;BME280;32084;42.254;22.744;2023-11-19T12:20:19;95243.69;;;10.39;44.93
46379;BME280;32084;42.254;22.744;2023-11-19T12:22:46;95231.94;;;10.31;45.41
46379;BME280;32084;42.254;22.744;2023-11-19T12:25:15;95251.31;;;10.33;44.60
46379;BME280;32084;42.254;22.744;2023-11-19T12:27:43;95235.88;;;10.27;45.24
46379;BME280;32084;42.254;22.744;2023-11-19T12:30:10;95244.47;;;10.31;44.84
46379;BME280;32084;42.254;22.744;2023-11-19T12:32:43;95227.03;;;10.27;44.49
46379;BME280;32084;42.254;22.744;2023-11-19T12:35:10;95224.97;;;10.39;44.93
46379;BME280;32084;42.254;22.744;2023-11-19T12:37:49;95220.78;;;10.36;45.56
46379;BME280;32084;42.254;22.744;2023-11-19T12:42:41;95215.28;;;9.93;44.94
46379;BME280;32084;42.254;22.744;2023-11-19T12:45:07;95209.56;;;9.88;46.61
46379;BME280;32084;42.254;22.744;2023-11-19T12:47:38;95208.97;;;9.76;45.63
46379;BME280;32084;42.254;22.744;2023-11-19T12:50:05;95212.19;;;9.62;45.12
46379;BME280;32084;42.254;22.744;2023-11-19T12:52:32;95205.31;;;9.77;46.75
46379;BME280;32084;42.254;22.744;2023-11-19T12:54:58;95209.19;;;9.83;45.31
46379;BME280;32084;42.254;22.744;2023-11-19T12:57:37;95211.50;;;9.78;45.67
46379;BME280;32084;42.254;22.744;2023-11-19T13:00:04;95208.44;;;9.73;45.30
46379;BME280;32084;42.254;22.744;2023-11-19T13:02:50;95204.09;;;9.72;44.85
46379;BME280;32084;42.254;22.744;2023-11-19T13:07:48;95198.72;;;9.64;45.88
46379;BME280;32084;42.254;22.744;2023-11-19T13:10:14;95202.75;;;9.68;46.01
46379;BME280;32084;42.254;22.744;2023-11-19T13:12:41;95203.13;;;9.55;45.23
46379;BME280;32084;42.254;22.744;2023-11-19T13:15:21;95203.66;;;9.41;47.32
46379;BME280;32084;42.254;22.744;2023-11-19T13:17:47;95205.03;;;9.27;48.65
46379;BME280;32084;42.254;22.744;2023-11-19T13:20:14;95202.34;;;9.27;49.02
46379;BME280;32084;42.254;22.744;2023-11-19T13:23:02;95200.91;;;9.14;47.84
46379;BME280;32084;42.254;22.744;2023-11-19T13:25:29;95205.72;;;9.11;47.45